WST702 MYNN-KFLL
Flight info
| Callsign | WST702 |
|---|---|
| Flight time | 1h 0m |
| Altitude | 24000 |
| Route | PEACH OLAHS3 |
| Aircraft | E145/M-SDFGIRW/S |
Departure
| Time | 2026-05-06 02:16 |
|---|---|
| Airport | Lynden Pindling International Airport (MYNN) |
Arrival
| Time | 2026-05-06 03:17 |
|---|---|
| Airport | Fort Lauderdale Hollywood International Airport (KFLL) |
| Time | Latitude | Longitude | Altitude | Speed | Heading |
|---|---|---|---|---|---|
| 2026-05-06 01:51 | 25.05159 | -77.46904 | 24 ft | 0 kts | 209° |
| 2026-05-06 02:10 | 25.05159 | -77.46905 | 24 ft | 0 kts | 209° |
| 2026-05-06 02:11 | 25.05167 | -77.46899 | 24 ft | 2 kts | 209° |
| 2026-05-06 02:11 | 25.05181 | -77.46891 | 24 ft | 2 kts | 207° |
| 2026-05-06 02:11 | 25.05191 | -77.46885 | 25 ft | 0 kts | 216° |
| 2026-05-06 02:11 | 25.05194 | -77.46880 | 25 ft | 0 kts | 242° |
| 2026-05-06 02:12 | 25.05195 | -77.46880 | 25 ft | 0 kts | 242° |
| 2026-05-06 02:12 | 25.05194 | -77.46880 | 25 ft | 0 kts | 242° |
| 2026-05-06 02:13 | 25.05194 | -77.46883 | 24 ft | 5 kts | 243° |
| 2026-05-06 02:13 | 25.05190 | -77.46931 | 25 ft | 2 kts | 281° |
| 2026-05-06 02:13 | 25.05201 | -77.47031 | 27 ft | 19 kts | 260° |
| 2026-05-06 02:14 | 25.05156 | -77.47041 | 26 ft | 9 kts | 129° |
| 2026-05-06 02:14 | 25.05105 | -77.47049 | 25 ft | 15 kts | 220° |
| 2026-05-06 02:14 | 25.05048 | -77.47120 | 25 ft | 13 kts | 251° |
| 2026-05-06 02:15 | 25.05130 | -77.47248 | 24 ft | 30 kts | 313° |
| 2026-05-06 02:15 | 25.05221 | -77.47383 | 22 ft | 16 kts | 277° |
| 2026-05-06 02:15 | 25.05184 | -77.47505 | 22 ft | 14 kts | 222° |
| 2026-05-06 02:15 | 25.05086 | -77.47462 | 21 ft | 32 kts | 136° |
| 2026-05-06 02:16 | 25.04738 | -77.47078 | 32 ft | 105 kts | 135° |
| 2026-05-06 02:16 | 25.04096 | -77.46368 | 136 ft | 145 kts | 134° |
| 2026-05-06 02:16 | 25.03436 | -77.45503 | 583 ft | 157 kts | 137° |
| 2026-05-06 02:16 | 25.02609 | -77.44686 | 1116 ft | 162 kts | 137° |
| 2026-05-06 02:17 | 25.01799 | -77.43805 | 1627 ft | 169 kts | 136° |
| 2026-05-06 02:17 | 25.00950 | -77.42866 | 2147 ft | 177 kts | 136° |
| 2026-05-06 02:17 | 25.00085 | -77.41860 | 2662 ft | 185 kts | 124° |
| 2026-05-06 02:17 | 24.99805 | -77.40498 | 3189 ft | 189 kts | 79° |
| 2026-05-06 02:18 | 25.00485 | -77.39310 | 3713 ft | 190 kts | 33° |
| 2026-05-06 02:18 | 25.01735 | -77.38989 | 4246 ft | 188 kts | 347° |
| 2026-05-06 02:18 | 25.02820 | -77.39697 | 4787 ft | 184 kts | 312° |
| 2026-05-06 02:18 | 25.03763 | -77.40668 | 5302 ft | 189 kts | 316° |
| 2026-05-06 02:19 | 25.04524 | -77.41397 | 5693 ft | 192 kts | 316° |
| 2026-05-06 02:19 | 25.05545 | -77.42358 | 6202 ft | 196 kts | 316° |
| 2026-05-06 02:19 | 25.06595 | -77.43339 | 6713 ft | 200 kts | 317° |
| 2026-05-06 02:19 | 25.07659 | -77.44329 | 7219 ft | 203 kts | 317° |
| 2026-05-06 02:20 | 25.09843 | -77.46362 | 8232 ft | 208 kts | 316° |
| 2026-05-06 02:20 | 25.10963 | -77.47405 | 8741 ft | 209 kts | 316° |
| 2026-05-06 02:20 | 25.12078 | -77.48442 | 9240 ft | 211 kts | 316° |
| 2026-05-06 02:21 | 25.13200 | -77.49487 | 9741 ft | 212 kts | 316° |
| 2026-05-06 02:21 | 25.13237 | -77.49521 | 9757 ft | 212 kts | 316° |
| 2026-05-06 02:21 | 25.13764 | -77.50012 | 9992 ft | 213 kts | 316° |
| 2026-05-06 02:22 | 25.13988 | -77.50221 | 10094 ft | 213 kts | 316° |
| 2026-05-06 02:23 | 25.14260 | -77.50474 | 10216 ft | 213 kts | 316° |
| 2026-05-06 02:23 | 25.15393 | -77.51529 | 10714 ft | 213 kts | 315° |
| 2026-05-06 02:23 | 25.16515 | -77.52576 | 11210 ft | 212 kts | 316° |
| 2026-05-06 02:23 | 25.16901 | -77.52935 | 11379 ft | 212 kts | 316° |
| 2026-05-06 02:24 | 25.17080 | -77.53101 | 11457 ft | 212 kts | 316° |
| 2026-05-06 02:25 | 25.17150 | -77.53167 | 11488 ft | 212 kts | 316° |
| 2026-05-06 02:26 | 25.17873 | -77.53841 | 11808 ft | 211 kts | 316° |
| 2026-05-06 02:26 | 25.18993 | -77.54885 | 12295 ft | 211 kts | 316° |
| 2026-05-06 02:26 | 25.20152 | -77.55968 | 12510 ft | 224 kts | 316° |
| 2026-05-06 02:27 | 25.20177 | -77.55991 | 12515 ft | 224 kts | 316° |
| 2026-05-06 02:28 | 25.21187 | -77.56933 | 12686 ft | 234 kts | 316° |
| 2026-05-06 02:28 | 25.22461 | -77.58122 | 12893 ft | 245 kts | 317° |
| 2026-05-06 02:28 | 25.23806 | -77.59377 | 13101 ft | 254 kts | 317° |
| 2026-05-06 02:29 | 25.25170 | -77.60649 | 13298 ft | 263 kts | 317° |
| 2026-05-06 02:29 | 25.26600 | -77.61985 | 13497 ft | 271 kts | 317° |
| 2026-05-06 02:29 | 25.28047 | -77.63336 | 13690 ft | 277 kts | 317° |
| 2026-05-06 02:29 | 25.29526 | -77.64719 | 13880 ft | 283 kts | 317° |
| 2026-05-06 02:30 | 25.31050 | -77.66143 | 14079 ft | 288 kts | 317° |
| 2026-05-06 02:30 | 25.32246 | -77.67261 | 14232 ft | 291 kts | 317° |
| 2026-05-06 02:30 | 25.33814 | -77.68729 | 14427 ft | 295 kts | 317° |
| 2026-05-06 02:30 | 25.35399 | -77.70211 | 14621 ft | 298 kts | 317° |
| 2026-05-06 02:31 | 25.36990 | -77.71700 | 14814 ft | 301 kts | 318° |
| 2026-05-06 02:31 | 25.38575 | -77.73185 | 15006 ft | 303 kts | 318° |
| 2026-05-06 02:31 | 25.40196 | -77.74702 | 15198 ft | 305 kts | 318° |
| 2026-05-06 02:31 | 25.41809 | -77.76218 | 15387 ft | 306 kts | 317° |
| 2026-05-06 02:32 | 25.43088 | -77.78108 | 15554 ft | 305 kts | 294° |
| 2026-05-06 02:32 | 25.43674 | -77.80363 | 15754 ft | 306 kts | 284° |
| 2026-05-06 02:32 | 25.44199 | -77.82637 | 15947 ft | 307 kts | 285° |
| 2026-05-06 02:32 | 25.44726 | -77.84921 | 16103 ft | 309 kts | 285° |
| 2026-05-06 02:33 | 25.45260 | -77.87234 | 16287 ft | 309 kts | 285° |
| 2026-05-06 02:33 | 25.45610 | -77.88752 | 16411 ft | 309 kts | 285° |
| 2026-05-06 02:34 | 25.47383 | -77.96460 | 17038 ft | 310 kts | 285° |
| 2026-05-06 02:34 | 25.47906 | -77.98740 | 17315 ft | 306 kts | 285° |
| 2026-05-06 02:34 | 25.48433 | -78.01032 | 17596 ft | 311 kts | 285° |
| 2026-05-06 02:34 | 25.48967 | -78.03364 | 17987 ft | 315 kts | 285° |
| 2026-05-06 02:35 | 25.49510 | -78.05731 | 18365 ft | 319 kts | 285° |
| 2026-05-06 02:35 | 25.50050 | -78.08091 | 18739 ft | 322 kts | 285° |
| 2026-05-06 02:35 | 25.50603 | -78.10507 | 19125 ft | 325 kts | 285° |
| 2026-05-06 02:35 | 25.51158 | -78.12936 | 19505 ft | 328 kts | 285° |
| 2026-05-06 02:36 | 25.51718 | -78.15385 | 19882 ft | 330 kts | 285° |
| 2026-05-06 02:36 | 25.52278 | -78.17840 | 20254 ft | 333 kts | 285° |
| 2026-05-06 02:36 | 25.52848 | -78.20338 | 20635 ft | 334 kts | 285° |
| 2026-05-06 02:36 | 25.53415 | -78.22830 | 21008 ft | 333 kts | 285° |
| 2026-05-06 02:37 | 25.53970 | -78.25268 | 21524 ft | 326 kts | 286° |
| 2026-05-06 02:37 | 25.54519 | -78.27683 | 22053 ft | 320 kts | 286° |
| 2026-05-06 02:37 | 25.55050 | -78.30021 | 22581 ft | 313 kts | 286° |
| 2026-05-06 02:37 | 25.55576 | -78.32336 | 23134 ft | 306 kts | 287° |
| 2026-05-06 02:38 | 25.56089 | -78.34598 | 23686 ft | 300 kts | 287° |
| 2026-05-06 02:38 | 25.56594 | -78.36824 | 23951 ft | 303 kts | 287° |
| 2026-05-06 02:38 | 25.57116 | -78.39121 | 23973 ft | 313 kts | 287° |
| 2026-05-06 02:38 | 25.57645 | -78.41460 | 23969 ft | 310 kts | 287° |
| 2026-05-06 02:39 | 25.58160 | -78.43739 | 23961 ft | 307 kts | 287° |
| 2026-05-06 02:39 | 25.58677 | -78.46026 | 23963 ft | 304 kts | 287° |
| 2026-05-06 02:39 | 25.59187 | -78.48284 | 23971 ft | 301 kts | 287° |
| 2026-05-06 02:39 | 25.59687 | -78.50496 | 23964 ft | 298 kts | 287° |
| 2026-05-06 02:40 | 25.60189 | -78.52724 | 23970 ft | 296 kts | 287° |
| 2026-05-06 02:40 | 25.60685 | -78.54925 | 23964 ft | 294 kts | 287° |
| 2026-05-06 02:40 | 25.61177 | -78.57108 | 23964 ft | 291 kts | 287° |
| 2026-05-06 02:40 | 25.61661 | -78.59261 | 23963 ft | 289 kts | 287° |
| 2026-05-06 02:41 | 25.62148 | -78.61427 | 23964 ft | 287 kts | 287° |
| 2026-05-06 02:41 | 25.62630 | -78.63571 | 23929 ft | 288 kts | 288° |
| 2026-05-06 02:41 | 25.63122 | -78.65756 | 23665 ft | 295 kts | 287° |
| 2026-05-06 02:41 | 25.63622 | -78.67982 | 23477 ft | 300 kts | 287° |
| 2026-05-06 02:42 | 25.64121 | -78.70211 | 23431 ft | 300 kts | 287° |
| 2026-05-06 02:42 | 25.64616 | -78.72424 | 23401 ft | 299 kts | 287° |
| 2026-05-06 02:42 | 25.65121 | -78.74680 | 23348 ft | 299 kts | 287° |
| 2026-05-06 02:42 | 25.65624 | -78.76926 | 23303 ft | 306 kts | 287° |
| 2026-05-06 02:43 | 25.66143 | -78.79247 | 23271 ft | 314 kts | 287° |
| 2026-05-06 02:43 | 25.66675 | -78.81628 | 23232 ft | 322 kts | 287° |
| 2026-05-06 02:43 | 25.67213 | -78.84039 | 23186 ft | 329 kts | 287° |
| 2026-05-06 02:43 | 25.67768 | -78.86526 | 23141 ft | 336 kts | 287° |
| 2026-05-06 02:44 | 25.68334 | -78.89069 | 23090 ft | 342 kts | 287° |
| 2026-05-06 02:44 | 25.68907 | -78.91642 | 23052 ft | 347 kts | 287° |
| 2026-05-06 02:44 | 25.69486 | -78.94245 | 23005 ft | 352 kts | 286° |
| 2026-05-06 02:44 | 25.70077 | -78.96907 | 22951 ft | 357 kts | 286° |
| 2026-05-06 02:45 | 25.70673 | -78.99591 | 22907 ft | 362 kts | 286° |
| 2026-05-06 02:45 | 25.71287 | -79.02355 | 22502 ft | 377 kts | 286° |
| 2026-05-06 02:45 | 25.71922 | -79.05221 | 22091 ft | 391 kts | 286° |
| 2026-05-06 02:45 | 25.72577 | -79.08184 | 21683 ft | 403 kts | 286° |
| 2026-05-06 02:46 | 25.73251 | -79.11233 | 21270 ft | 414 kts | 285° |
| 2026-05-06 02:46 | 25.73928 | -79.14303 | 20809 ft | 400 kts | 285° |
| 2026-05-06 02:46 | 25.74562 | -79.17181 | 20416 ft | 377 kts | 286° |
| 2026-05-06 02:46 | 25.75172 | -79.19945 | 19980 ft | 360 kts | 285° |
| 2026-05-06 02:47 | 25.75749 | -79.22568 | 19550 ft | 345 kts | 285° |
| 2026-05-06 02:47 | 25.76309 | -79.25111 | 19113 ft | 332 kts | 285° |
| 2026-05-06 02:47 | 25.76845 | -79.27550 | 18681 ft | 321 kts | 285° |
| 2026-05-06 02:47 | 25.77365 | -79.29918 | 18248 ft | 312 kts | 285° |
| 2026-05-06 02:48 | 25.77864 | -79.32188 | 17821 ft | 304 kts | 285° |
| 2026-05-06 02:48 | 25.78361 | -79.34454 | 17391 ft | 297 kts | 285° |
| 2026-05-06 02:48 | 25.78843 | -79.36657 | 16959 ft | 292 kts | 285° |
| 2026-05-06 02:48 | 25.79319 | -79.38827 | 16525 ft | 287 kts | 285° |
| 2026-05-06 02:49 | 25.79781 | -79.40941 | 16096 ft | 282 kts | 285° |
| 2026-05-06 02:49 | 25.80240 | -79.43039 | 15668 ft | 279 kts | 285° |
| 2026-05-06 02:49 | 25.80692 | -79.45109 | 15235 ft | 276 kts | 285° |
| 2026-05-06 02:49 | 25.81138 | -79.47150 | 14802 ft | 273 kts | 285° |
| 2026-05-06 02:50 | 25.81583 | -79.49190 | 14367 ft | 271 kts | 285° |
| 2026-05-06 02:50 | 25.82019 | -79.51191 | 13944 ft | 269 kts | 285° |
| 2026-05-06 02:50 | 25.82460 | -79.53215 | 13509 ft | 267 kts | 285° |
| 2026-05-06 02:50 | 25.82896 | -79.55214 | 12941 ft | 271 kts | 285° |
| 2026-05-06 02:51 | 25.83337 | -79.57242 | 12266 ft | 270 kts | 284° |
| 2026-05-06 02:51 | 25.83766 | -79.59216 | 11642 ft | 261 kts | 284° |
| 2026-05-06 02:51 | 25.84341 | -79.61069 | 11022 ft | 253 kts | 294° |
| 2026-05-06 02:51 | 25.85023 | -79.62856 | 10390 ft | 248 kts | 293° |
| 2026-05-06 02:52 | 25.85689 | -79.64597 | 9760 ft | 244 kts | 295° |
| 2026-05-06 02:52 | 25.86409 | -79.66269 | 9141 ft | 241 kts | 295° |
| 2026-05-06 02:52 | 25.87120 | -79.67924 | 8523 ft | 239 kts | 295° |
| 2026-05-06 02:52 | 25.87825 | -79.69567 | 7906 ft | 237 kts | 296° |
| 2026-05-06 02:53 | 25.88538 | -79.71225 | 7310 ft | 239 kts | 296° |
| 2026-05-06 02:53 | 25.89270 | -79.72929 | 6705 ft | 250 kts | 296° |
| 2026-05-06 02:53 | 25.90025 | -79.74695 | 6144 ft | 256 kts | 296° |
| 2026-05-06 02:53 | 25.90767 | -79.76435 | 6049 ft | 242 kts | 296° |
| 2026-05-06 02:54 | 25.91463 | -79.78069 | 6037 ft | 226 kts | 296° |
| 2026-05-06 02:54 | 25.92118 | -79.79604 | 6079 ft | 224 kts | 296° |
| 2026-05-06 02:54 | 25.92818 | -79.81247 | 6066 ft | 246 kts | 296° |
| 2026-05-06 02:54 | 25.93577 | -79.83030 | 6061 ft | 263 kts | 296° |
| 2026-05-06 02:55 | 25.94380 | -79.84915 | 6055 ft | 273 kts | 296° |
| 2026-05-06 02:55 | 25.95172 | -79.86777 | 6040 ft | 264 kts | 295° |
| 2026-05-06 02:55 | 25.95956 | -79.88620 | 6043 ft | 257 kts | 295° |
| 2026-05-06 02:55 | 25.96716 | -79.90409 | 6043 ft | 254 kts | 295° |
| 2026-05-06 02:56 | 25.97467 | -79.92177 | 6036 ft | 252 kts | 295° |
| 2026-05-06 02:56 | 25.98206 | -79.93919 | 6047 ft | 252 kts | 296° |
| 2026-05-06 02:56 | 25.98965 | -79.95706 | 6052 ft | 257 kts | 295° |
| 2026-05-06 02:56 | 25.99727 | -79.97501 | 6052 ft | 261 kts | 296° |
| 2026-05-06 02:57 | 26.00371 | -79.99015 | 6053 ft | 264 kts | 296° |
| 2026-05-06 02:57 | 26.00793 | -80.00008 | 6052 ft | 266 kts | 296° |
| 2026-05-06 02:57 | 26.01592 | -80.01887 | 6053 ft | 268 kts | 296° |
| 2026-05-06 02:57 | 26.02400 | -80.03788 | 6053 ft | 270 kts | 296° |
| 2026-05-06 02:58 | 26.03204 | -80.05679 | 6052 ft | 272 kts | 296° |
| 2026-05-06 02:58 | 26.04010 | -80.07572 | 6052 ft | 273 kts | 295° |
| 2026-05-06 02:58 | 26.04827 | -80.09493 | 6051 ft | 274 kts | 296° |
| 2026-05-06 02:58 | 26.05621 | -80.11359 | 6037 ft | 250 kts | 295° |
| 2026-05-06 02:59 | 26.06327 | -80.13010 | 6029 ft | 225 kts | 298° |
| 2026-05-06 02:59 | 26.07201 | -80.14365 | 6023 ft | 203 kts | 310° |
| 2026-05-06 02:59 | 26.08058 | -80.15526 | 5944 ft | 188 kts | 309° |
| 2026-05-06 02:59 | 26.08865 | -80.16627 | 5753 ft | 183 kts | 310° |
| 2026-05-06 03:00 | 26.09667 | -80.17729 | 5461 ft | 183 kts | 310° |
| 2026-05-06 03:00 | 26.10459 | -80.18836 | 5173 ft | 183 kts | 309° |
| 2026-05-06 03:00 | 26.11259 | -80.19952 | 4883 ft | 183 kts | 310° |
| 2026-05-06 03:00 | 26.12052 | -80.21071 | 4595 ft | 183 kts | 309° |
| 2026-05-06 03:01 | 26.12875 | -80.22237 | 4337 ft | 199 kts | 309° |
| 2026-05-06 03:01 | 26.13378 | -80.23669 | 4092 ft | 204 kts | 275° |
| 2026-05-06 03:01 | 26.13415 | -80.25241 | 4058 ft | 205 kts | 272° |
| 2026-05-06 03:01 | 26.13449 | -80.26905 | 4071 ft | 223 kts | 272° |
| 2026-05-06 03:02 | 26.13487 | -80.28657 | 4063 ft | 233 kts | 273° |
| 2026-05-06 03:02 | 26.13529 | -80.30499 | 4060 ft | 241 kts | 272° |
| 2026-05-06 03:02 | 26.13576 | -80.32381 | 3954 ft | 249 kts | 272° |
| 2026-05-06 03:02 | 26.13624 | -80.34247 | 3602 ft | 235 kts | 272° |
| 2026-05-06 03:03 | 26.13509 | -80.36035 | 3239 ft | 230 kts | 252° |
| 2026-05-06 03:03 | 26.12586 | -80.37385 | 3060 ft | 214 kts | 212° |
| 2026-05-06 03:03 | 26.11238 | -80.37814 | 3008 ft | 194 kts | 183° |
| 2026-05-06 03:03 | 26.09951 | -80.37687 | 2901 ft | 179 kts | 153° |
| 2026-05-06 03:04 | 26.09114 | -80.36747 | 2724 ft | 168 kts | 115° |
| 2026-05-06 03:04 | 26.08628 | -80.35588 | 2553 ft | 163 kts | 112° |
| 2026-05-06 03:04 | 26.08155 | -80.34460 | 2362 ft | 160 kts | 113° |
| 2026-05-06 03:04 | 26.07687 | -80.33359 | 2241 ft | 148 kts | 112° |
| 2026-05-06 03:05 | 26.07262 | -80.32381 | 2135 ft | 135 kts | 112° |
| 2026-05-06 03:05 | 26.06859 | -80.31468 | 2004 ft | 123 kts | 112° |
| 2026-05-06 03:05 | 26.06465 | -80.30581 | 2048 ft | 139 kts | 112° |
| 2026-05-06 03:05 | 26.06001 | -80.29510 | 2051 ft | 163 kts | 113° |
| 2026-05-06 03:06 | 26.05496 | -80.28320 | 2040 ft | 180 kts | 112° |
| 2026-05-06 03:06 | 26.04942 | -80.27008 | 2031 ft | 192 kts | 113° |
| 2026-05-06 03:06 | 26.04362 | -80.25626 | 2029 ft | 200 kts | 113° |
| 2026-05-06 03:06 | 26.03877 | -80.24467 | 2022 ft | 206 kts | 112° |
| 2026-05-06 03:07 | 26.03141 | -80.23096 | 1995 ft | 214 kts | 131° |
| 2026-05-06 03:07 | 26.01808 | -80.22413 | 2165 ft | 214 kts | 171° |
| 2026-05-06 03:07 | 26.00343 | -80.22507 | 2471 ft | 206 kts | 185° |
| 2026-05-06 03:07 | 25.98982 | -80.22298 | 2713 ft | 196 kts | 150° |
| 2026-05-06 03:08 | 25.98142 | -80.21213 | 2975 ft | 183 kts | 107° |
| 2026-05-06 03:08 | 25.98251 | -80.19885 | 3289 ft | 171 kts | 60° |
| 2026-05-06 03:08 | 25.99179 | -80.19099 | 3557 ft | 176 kts | 11° |
| 2026-05-06 03:08 | 26.00397 | -80.19150 | 3939 ft | 180 kts | 349° |
| 2026-05-06 03:09 | 26.01514 | -80.19888 | 4039 ft | 202 kts | 308° |
| 2026-05-06 03:09 | 26.02008 | -80.21460 | 4055 ft | 230 kts | 275° |
| 2026-05-06 03:09 | 26.02078 | -80.23319 | 4030 ft | 255 kts | 273° |
| 2026-05-06 03:09 | 26.02144 | -80.25269 | 3973 ft | 246 kts | 273° |
| 2026-05-06 03:10 | 26.02196 | -80.27065 | 3999 ft | 217 kts | 273° |
| 2026-05-06 03:10 | 26.02240 | -80.28704 | 3999 ft | 204 kts | 273° |
| 2026-05-06 03:10 | 26.02279 | -80.30235 | 3996 ft | 192 kts | 273° |
| 2026-05-06 03:10 | 26.02321 | -80.31681 | 3895 ft | 187 kts | 273° |
| 2026-05-06 03:11 | 26.02360 | -80.33147 | 3587 ft | 194 kts | 273° |
| 2026-05-06 03:11 | 26.02403 | -80.34689 | 3296 ft | 205 kts | 273° |
| 2026-05-06 03:11 | 26.02601 | -80.36285 | 3040 ft | 207 kts | 297° |
| 2026-05-06 03:11 | 26.03545 | -80.37360 | 3024 ft | 191 kts | 340° |
| 2026-05-06 03:12 | 26.04805 | -80.37618 | 3006 ft | 177 kts | 8° |
| 2026-05-06 03:12 | 26.05833 | -80.37064 | 3014 ft | 160 kts | 53° |
| 2026-05-06 03:12 | 26.06402 | -80.36034 | 3015 ft | 160 kts | 60° |
| 2026-05-06 03:12 | 26.06987 | -80.34896 | 3032 ft | 177 kts | 60° |
| 2026-05-06 03:13 | 26.07624 | -80.33626 | 2906 ft | 201 kts | 66° |
| 2026-05-06 03:13 | 26.07804 | -80.32161 | 2717 ft | 185 kts | 91° |
| 2026-05-06 03:13 | 26.07764 | -80.30788 | 2468 ft | 174 kts | 88° |
| 2026-05-06 03:13 | 26.07767 | -80.29438 | 2240 ft | 173 kts | 88° |
| 2026-05-06 03:14 | 26.07758 | -80.28123 | 2038 ft | 167 kts | 88° |
| 2026-05-06 03:14 | 26.07750 | -80.26857 | 1808 ft | 161 kts | 88° |
| 2026-05-06 03:14 | 26.07744 | -80.25637 | 1592 ft | 157 kts | 88° |
| 2026-05-06 03:14 | 26.07738 | -80.24444 | 1387 ft | 154 kts | 88° |
| 2026-05-06 03:15 | 26.07732 | -80.23244 | 1183 ft | 153 kts | 88° |
| 2026-05-06 03:15 | 26.07726 | -80.22062 | 988 ft | 153 kts | 89° |
| 2026-05-06 03:15 | 26.07719 | -80.20887 | 787 ft | 152 kts | 89° |
| 2026-05-06 03:15 | 26.07712 | -80.19701 | 590 ft | 152 kts | 89° |
| 2026-05-06 03:16 | 26.07700 | -80.18539 | 458 ft | 150 kts | 90° |
| 2026-05-06 03:16 | 26.07683 | -80.17381 | 236 ft | 153 kts | 89° |
| 2026-05-06 03:16 | 26.07690 | -80.16200 | 28 ft | 143 kts | 89° |
| 2026-05-06 03:16 | 26.07687 | -80.15216 | 10 ft | 107 kts | 90° |
| 2026-05-06 03:17 | 26.07677 | -80.14812 | 10 ft | 30 kts | 97° |
| 2026-05-06 03:17 | 26.07649 | -80.14668 | 10 ft | 15 kts | 104° |
| 2026-05-06 03:17 | 26.07614 | -80.14567 | 10 ft | 6 kts | 121° |
| 2026-05-06 03:17 | 26.07590 | -80.14532 | 10 ft | 9 kts | 134° |
| 2026-05-06 03:18 | 26.07536 | -80.14509 | 10 ft | 0 kts | 177° |
| 2026-05-06 03:18 | 26.07507 | -80.14509 | 10 ft | 7 kts | 184° |
| 2026-05-06 03:18 | 26.07486 | -80.14550 | 10 ft | 8 kts | 278° |
| 2026-05-06 03:18 | 26.07469 | -80.14619 | 10 ft | 7 kts | 213° |
| 2026-05-06 03:19 | 26.07408 | -80.14631 | 10 ft | 5 kts | 193° |
| 2026-05-06 03:19 | 26.07372 | -80.14649 | 10 ft | 0 kts | 207° |